createdAt,value
2018-06-01T00:02:21.567Z,96.67
2018-06-01T00:04:49.809Z,95.87
2018-06-01T00:07:18.055Z,95.81
2018-06-01T00:09:46.311Z,97.06
2018-06-01T00:12:15.296Z,97.88
2018-06-01T00:14:43.581Z,97.94
2018-06-01T00:17:11.835Z,95.97
2018-06-01T00:19:40.072Z,96.83
2018-06-01T00:22:09.083Z,97.50
2018-06-01T00:24:38.057Z,97.28
2018-06-01T00:27:07.080Z,98.06
2018-06-01T00:29:35.348Z,98.56
2018-06-01T00:32:03.600Z,99.18
2018-06-01T00:34:31.834Z,99.15
2018-06-01T00:37:00.086Z,99.62
2018-06-01T00:39:28.319Z,99.40
2018-06-01T00:41:56.593Z,99.74
2018-06-01T00:44:25.606Z,98.96
2018-06-01T00:46:53.819Z,99.52
2018-06-01T00:49:22.055Z,100.00
2018-06-01T00:51:50.309Z,99.83
2018-06-01T00:54:18.594Z,99.05
2018-06-01T00:56:47.623Z,98.98
2018-06-01T00:59:15.850Z,99.31
2018-06-01T01:01:44.116Z,97.95
2018-06-01T01:04:12.347Z,98.98
2018-06-01T01:06:40.632Z,98.85
2018-06-01T01:09:08.875Z,98.41
2018-06-01T01:11:37.111Z,99.10
2018-06-01T01:14:06.135Z,99.00
2018-06-01T01:16:35.722Z,98.87
2018-06-01T01:19:04.011Z,98.82
2018-06-01T01:21:32.255Z,97.94
2018-06-01T01:24:00.519Z,99.29
2018-06-01T01:26:29.516Z,99.88
2018-06-01T01:28:58.579Z,100.00
2018-06-01T01:31:26.813Z,100.00
2018-06-01T01:33:55.849Z,100.00
2018-06-01T01:36:24.078Z,100.00
2018-06-01T01:38:52.342Z,100.00
2018-06-01T01:41:20.607Z,100.00
2018-06-01T01:43:48.839Z,99.36
2018-06-01T01:46:17.072Z,99.99
2018-06-01T01:48:46.091Z,100.00
2018-06-01T01:51:14.336Z,100.00
2018-06-01T01:53:42.601Z,100.00
2018-06-01T01:56:10.850Z,100.00
2018-06-01T01:58:39.879Z,100.00
2018-06-01T02:01:08.126Z,99.84
2018-06-01T02:03:37.147Z,100.00
2018-06-01T02:06:06.176Z,99.95
2018-06-01T02:08:34.433Z,99.73
2018-06-01T02:11:03.436Z,100.00
2018-06-01T02:13:32.468Z,100.00
2018-06-01T02:16:00.697Z,100.00
2018-06-01T02:18:28.959Z,100.00
2018-06-01T02:20:57.212Z,100.00
2018-06-01T02:23:26.988Z,100.00
2018-06-01T02:25:55.248Z,100.00
2018-06-01T02:28:23.504Z,100.00
2018-06-01T02:30:51.771Z,100.00
2018-06-01T02:33:20.010Z,100.00
2018-06-01T02:35:48.271Z,100.00
2018-06-01T02:38:16.507Z,100.00
2018-06-01T02:40:44.776Z,100.00
2018-06-01T02:43:13.779Z,100.00
2018-06-01T02:45:42.058Z,100.00
2018-06-01T02:48:11.036Z,100.00
2018-06-01T02:50:40.097Z,100.00
2018-06-01T02:53:08.340Z,100.00
2018-06-01T02:55:36.600Z,100.00
2018-06-01T02:58:04.839Z,100.00
2018-06-01T03:00:34.612Z,100.00
2018-06-01T03:03:02.843Z,100.00
2018-06-01T03:05:31.865Z,100.00
2018-06-01T03:08:00.099Z,100.00
2018-06-01T03:10:28.358Z,100.00
2018-06-01T03:12:56.607Z,100.00
2018-06-01T03:15:24.828Z,100.00
2018-06-01T03:17:53.099Z,100.00
2018-06-01T03:20:22.125Z,100.00
2018-06-01T03:22:50.362Z,100.00
2018-06-01T03:25:18.628Z,100.00
2018-06-01T03:27:46.864Z,100.00
2018-06-01T03:30:16.636Z,100.00
2018-06-01T03:32:44.875Z,100.00
2018-06-01T03:35:13.900Z,100.00
2018-06-01T03:37:42.372Z,100.00
2018-06-01T03:40:11.418Z,100.00
2018-06-01T03:42:39.658Z,100.00
2018-06-01T03:45:07.912Z,100.00
2018-06-01T03:47:36.253Z,100.00
2018-06-01T03:50:05.263Z,100.00
2018-06-01T03:52:34.267Z,100.00
2018-06-01T03:55:03.302Z,100.00
2018-06-01T03:57:31.567Z,100.00
2018-06-01T04:00:00.588Z,100.00
2018-06-01T04:02:28.827Z,100.00
2018-06-01T04:04:57.979Z,100.00
2018-06-01T04:07:27.084Z,100.00
2018-06-01T04:09:56.092Z,100.00
2018-06-01T04:12:25.123Z,100.00
2018-06-01T04:14:53.372Z,100.00
2018-06-01T04:17:22.363Z,100.00
2018-06-01T04:19:50.638Z,100.00
2018-06-01T04:22:18.851Z,100.00
2018-06-01T04:24:47.131Z,100.00
2018-06-01T04:27:15.386Z,100.00
2018-06-01T04:29:43.636Z,100.00
2018-06-01T04:32:13.368Z,100.00
2018-06-01T04:34:41.655Z,100.00
2018-06-01T04:37:09.919Z,100.00
2018-06-01T04:39:38.156Z,100.00
2018-06-01T04:42:06.412Z,100.00
2018-06-01T04:44:35.422Z,100.00
2018-06-01T04:47:04.432Z,92.35
2018-06-01T04:49:32.673Z,87.55
2018-06-01T04:52:00.935Z,88.15
2018-06-01T04:54:29.190Z,77.02
2018-06-01T04:56:58.222Z,70.79
2018-06-01T04:59:26.455Z,69.59
2018-06-01T05:01:54.729Z,66.27
2018-06-01T05:04:22.979Z,66.77
2018-06-01T05:06:51.227Z,66.99
2018-06-01T05:09:19.468Z,65.52
2018-06-01T05:11:47.732Z,67.15
2018-06-01T05:14:17.437Z,64.70
2018-06-01T05:16:45.909Z,64.03
2018-06-01T05:19:14.109Z,61.28
2018-06-01T05:21:42.409Z,62.65
2018-06-01T05:24:11.447Z,62.67
2018-06-01T05:26:39.697Z,63.36
2018-06-01T05:29:07.931Z,59.83
2018-06-01T05:31:36.150Z,62.54
2018-06-01T05:34:05.583Z,67.34
2018-06-01T05:36:33.816Z,67.38
2018-06-01T05:39:02.103Z,65.82
2018-06-01T05:41:30.344Z,64.80
2018-06-01T05:43:58.626Z,65.41
2018-06-01T05:46:26.880Z,65.32
2018-06-01T05:48:55.146Z,65.19
2018-06-01T05:51:24.173Z,59.70
2018-06-01T05:53:52.395Z,63.12
2018-06-01T05:56:20.639Z,64.40
2018-06-01T05:58:48.888Z,65.63
2018-06-01T06:01:17.124Z,63.13
2018-06-01T06:03:45.385Z,65.02
2018-06-01T06:06:14.423Z,63.23
2018-06-01T06:08:42.700Z,62.90
2018-06-01T06:11:10.985Z,63.82
2018-06-01T06:13:40.007Z,65.70
2018-06-01T06:16:08.257Z,66.41
2018-06-01T06:18:36.536Z,61.15
2018-06-01T06:21:04.784Z,65.21
2018-06-01T06:23:33.030Z,63.13
2018-06-01T06:26:01.291Z,62.96
2018-06-01T06:28:30.315Z,62.13
2018-06-01T06:30:58.578Z,62.08
2018-06-01T06:33:26.885Z,61.48
2018-06-01T06:35:55.144Z,63.37
2018-06-01T06:38:23.400Z,63.76
2018-06-01T06:40:52.425Z,60.51
2018-06-01T06:43:20.649Z,61.17
2018-06-01T06:45:49.694Z,63.08
2018-06-01T06:48:18.716Z,61.85
2018-06-01T06:50:46.964Z,61.92
2018-06-01T06:53:15.232Z,61.97
2018-06-01T06:55:43.465Z,62.78
2018-06-01T06:58:12.462Z,63.07
2018-06-01T07:00:41.486Z,62.24
2018-06-01T07:03:11.257Z,59.43
2018-06-01T07:05:39.508Z,65.12
2018-06-01T07:08:07.751Z,64.20
2018-06-01T07:10:36.068Z,63.15
2018-06-01T07:13:04.252Z,61.74
2018-06-01T07:15:33.276Z,62.10
2018-06-01T07:18:01.519Z,63.26
2018-06-01T07:20:29.795Z,62.28
2018-06-01T07:22:58.035Z,59.92
2018-06-01T07:25:27.050Z,57.08
2018-06-01T07:27:55.313Z,64.16
2018-06-01T07:30:24.334Z,64.62
2018-06-01T07:32:53.336Z,64.33
2018-06-01T07:35:22.743Z,63.58
2018-06-01T07:37:51.750Z,63.49
2018-06-01T07:40:20.737Z,57.25
2018-06-01T07:42:49.770Z,57.33
2018-06-01T07:45:18.802Z,57.05
2018-06-01T07:47:47.041Z,61.54
2018-06-01T07:50:15.308Z,60.58
2018-06-01T07:52:43.567Z,57.66
2018-06-01T07:55:11.833Z,60.28
2018-06-01T07:57:40.851Z,61.31
2018-06-01T08:00:09.928Z,61.85
2018-06-01T08:02:38.177Z,62.45
2018-06-01T08:05:07.200Z,58.99
2018-06-01T08:07:35.456Z,57.31
2018-06-01T08:10:03.756Z,60.54
2018-06-01T08:12:32.000Z,59.59
2018-06-01T08:15:00.251Z,55.64
2018-06-01T08:17:28.503Z,56.53
2018-06-01T08:19:56.763Z,58.79
2018-06-01T08:22:25.017Z,59.13
2018-06-01T08:24:53.327Z,60.23
2018-06-01T08:27:21.581Z,60.82
2018-06-01T08:29:49.834Z,59.82
2018-06-01T08:32:18.921Z,55.51
2018-06-01T08:34:47.094Z,55.15
2018-06-01T08:37:15.354Z,54.59
2018-06-01T08:39:43.596Z,50.46
2018-06-01T08:42:11.855Z,53.10
2018-06-01T08:44:40.100Z,54.20
2018-06-01T08:47:08.370Z,55.15
2018-06-01T08:49:38.111Z,56.13
2018-06-01T08:52:06.365Z,55.56
2018-06-01T08:54:34.598Z,54.19
2018-06-01T08:57:02.895Z,54.44
2018-06-01T08:59:31.139Z,51.28
2018-06-01T09:01:59.404Z,49.98
2018-06-01T09:04:27.644Z,50.27
2018-06-01T09:06:55.915Z,50.46
2018-06-01T09:09:24.152Z,51.48
2018-06-01T09:11:52.417Z,51.08
2018-06-01T09:14:20.658Z,53.28
2018-06-01T09:16:48.924Z,53.23
2018-06-01T09:19:17.149Z,55.44
2018-06-01T09:21:46.608Z,54.83
2018-06-01T09:24:14.847Z,52.91
2018-06-01T09:26:43.099Z,49.65
2018-06-01T09:29:11.346Z,47.97
2018-06-01T09:31:40.370Z,50.69
2018-06-01T09:34:08.607Z,53.73
2018-06-01T09:36:36.851Z,54.65
2018-06-01T09:39:06.680Z,51.96
2018-06-01T09:41:34.944Z,54.74
2018-06-01T09:44:03.930Z,51.95
2018-06-01T09:46:32.293Z,54.15
2018-06-01T09:49:01.288Z,53.25
2018-06-01T09:51:29.748Z,53.98
2018-06-01T09:53:58.132Z,55.37
2018-06-01T09:56:27.187Z,54.97
2018-06-01T09:58:55.424Z,52.04
2018-06-01T10:01:29.264Z,50.59
2018-06-01T10:03:58.298Z,51.30
2018-06-01T10:06:26.607Z,49.71
2018-06-01T10:08:54.984Z,48.64
2018-06-01T10:11:23.224Z,47.70
2018-06-01T10:13:52.247Z,48.09
2018-06-01T10:16:20.502Z,49.98
2018-06-01T10:18:48.778Z,51.60
2018-06-01T10:21:17.028Z,50.25
2018-06-01T10:23:45.307Z,48.55
2018-06-01T10:26:13.559Z,49.18
2018-06-01T10:28:41.817Z,51.26
2018-06-01T10:31:10.069Z,50.00
2018-06-01T10:33:38.349Z,48.33
2018-06-01T10:36:08.083Z,48.96
2018-06-01T10:38:36.342Z,51.37
2018-06-01T10:41:05.355Z,51.08
2018-06-01T10:43:34.378Z,51.84
2018-06-01T10:46:02.627Z,53.07
2018-06-01T10:48:30.900Z,54.31
2018-06-01T10:50:59.167Z,51.70
2018-06-01T10:53:27.438Z,53.27
2018-06-01T10:55:55.686Z,53.63
2018-06-01T10:58:24.707Z,51.41
2018-06-01T11:00:53.724Z,51.52
2018-06-01T11:03:22.788Z,52.52
2018-06-01T11:05:51.823Z,51.94
2018-06-01T11:08:20.149Z,54.32
2018-06-01T11:10:48.391Z,51.99
2018-06-01T11:13:16.642Z,51.41
2018-06-01T11:15:44.887Z,51.23
2018-06-01T11:18:13.926Z,53.63
2018-06-01T11:20:42.165Z,54.68
2018-06-01T11:23:11.208Z,55.13
2018-06-01T11:25:39.463Z,54.04
2018-06-01T11:28:07.666Z,55.21
2018-06-01T11:30:35.969Z,53.76
2018-06-01T11:33:04.929Z,55.34
2018-06-01T11:35:34.004Z,54.17
2018-06-01T11:38:02.250Z,50.87
2018-06-01T11:40:30.472Z,44.32
2018-06-01T11:42:58.724Z,47.67
2018-06-01T11:45:27.062Z,46.25
2018-06-01T11:47:55.307Z,46.56
2018-06-01T11:50:25.091Z,45.47
2018-06-01T11:52:53.337Z,47.53
2018-06-01T11:55:22.368Z,46.39
2018-06-01T11:57:50.615Z,48.07
2018-06-01T12:00:20.025Z,47.76
2018-06-01T12:02:48.260Z,48.36
2018-06-01T12:05:16.515Z,49.33
2018-06-01T12:07:45.517Z,49.53
2018-06-01T12:10:14.545Z,48.33
2018-06-01T12:12:42.804Z,48.17
2018-06-01T12:15:11.051Z,45.72
2018-06-01T12:17:39.308Z,44.33
2018-06-01T12:20:08.319Z,44.62
2018-06-01T12:22:36.565Z,45.73
2018-06-01T12:25:04.831Z,43.54
2018-06-01T12:27:33.102Z,45.74
2018-06-01T12:30:01.367Z,47.14
2018-06-01T12:32:30.367Z,44.86
2018-06-01T12:34:59.385Z,41.12
2018-06-01T12:37:28.468Z,45.43
2018-06-01T12:39:56.710Z,46.28
2018-06-01T12:42:24.971Z,47.27
2018-06-01T12:44:53.220Z,43.66
2018-06-01T12:47:22.221Z,46.58
2018-06-01T12:49:51.254Z,44.86
2018-06-01T12:52:20.297Z,42.52
2018-06-01T12:54:48.533Z,42.17
2018-06-01T12:57:16.806Z,44.03
2018-06-01T12:59:45.061Z,41.16
2018-06-01T13:02:13.360Z,42.59
2018-06-01T13:04:41.629Z,42.65
2018-06-01T13:07:09.891Z,41.54
2018-06-01T13:09:38.864Z,41.20
2018-06-01T13:12:07.877Z,40.96
2018-06-01T13:14:36.915Z,40.81
2018-06-01T13:17:05.907Z,41.12
2018-06-01T13:19:34.192Z,42.04
2018-06-01T13:22:02.447Z,43.19
2018-06-01T13:24:30.696Z,42.10
2018-06-01T13:26:59.703Z,40.74
2018-06-01T13:29:28.716Z,43.49
2018-06-01T13:31:56.970Z,43.93
2018-06-01T13:34:26.732Z,45.20
2018-06-01T13:36:55.784Z,44.64
2018-06-01T13:39:24.023Z,43.61
2018-06-01T13:41:52.296Z,41.48
2018-06-01T13:44:20.538Z,42.27
2018-06-01T13:46:48.756Z,42.85
2018-06-01T13:49:17.035Z,43.44
2018-06-01T13:51:45.298Z,41.64
2018-06-01T13:54:13.522Z,41.98
2018-06-01T13:56:41.784Z,42.51
2018-06-01T13:59:10.022Z,43.78
2018-06-01T14:01:38.258Z,44.34
2018-06-01T14:04:07.287Z,45.91
2018-06-01T14:06:35.525Z,46.78
2018-06-01T14:09:03.783Z,47.77
2018-06-01T14:11:32.025Z,48.40
2018-06-01T14:14:00.278Z,47.28
2018-06-01T14:16:29.287Z,44.77
2018-06-01T14:18:57.551Z,46.78
2018-06-01T14:21:26.614Z,47.15
2018-06-01T14:23:54.900Z,48.05
2018-06-01T14:26:23.135Z,50.24
2018-06-01T14:28:51.399Z,50.13
2018-06-01T14:31:20.404Z,50.97
2018-06-01T14:33:48.674Z,50.16
2018-06-01T14:36:16.919Z,50.94
2018-06-01T14:38:45.200Z,49.54
2018-06-01T14:41:14.807Z,49.53
2018-06-01T14:43:43.041Z,48.14
2018-06-01T14:46:11.270Z,47.27
2018-06-01T14:48:40.339Z,49.30
2018-06-01T14:51:08.607Z,51.18
2018-06-01T14:53:37.643Z,51.17
2018-06-01T14:56:05.879Z,51.66
2018-06-01T14:58:34.429Z,49.28
2018-06-01T15:01:02.763Z,47.94
2018-06-01T15:03:31.127Z,47.88
2018-06-01T15:06:00.718Z,49.00
2018-06-01T15:08:29.494Z,46.99
2018-06-01T15:10:58.406Z,47.71
2018-06-01T15:13:27.986Z,46.69
2018-06-01T15:15:56.980Z,46.83
2018-06-01T15:18:25.218Z,46.92
2018-06-01T15:20:54.192Z,45.26
2018-06-01T15:23:23.254Z,44.51
2018-06-01T15:25:51.490Z,46.63
2018-06-01T15:28:19.693Z,47.54
2018-06-01T15:30:47.947Z,46.52
2018-06-01T15:33:17.006Z,43.74
2018-06-01T15:35:46.015Z,48.22
2018-06-01T15:38:14.269Z,48.94
2018-06-01T15:40:42.545Z,50.44
2018-06-01T15:43:10.783Z,52.06
2018-06-01T15:45:39.790Z,49.22
2018-06-01T15:48:08.037Z,48.06
2018-06-01T15:50:37.110Z,49.26
2018-06-01T15:53:05.351Z,49.93
2018-06-01T15:55:33.623Z,49.68
2018-06-01T15:58:02.623Z,49.50
2018-06-01T16:00:30.888Z,50.32
2018-06-01T16:02:59.135Z,49.46
2018-06-01T16:05:28.183Z,49.26
2018-06-01T16:07:56.420Z,49.55
2018-06-01T16:10:25.407Z,49.41
2018-06-01T16:12:54.463Z,49.01
2018-06-01T16:15:22.734Z,48.82
2018-06-01T16:17:51.800Z,50.17
2018-06-01T16:20:20.019Z,53.24
2018-06-01T16:22:48.318Z,55.83
2018-06-01T16:25:17.703Z,60.56
2018-06-01T16:27:45.959Z,62.20
2018-06-01T16:30:14.218Z,66.98
2018-06-01T16:32:43.300Z,68.92
2018-06-01T16:35:11.578Z,71.19
2018-06-01T16:37:39.838Z,71.47
2018-06-01T16:40:08.131Z,74.79
2018-06-01T16:42:36.368Z,72.68
2018-06-01T16:45:04.641Z,78.83
2018-06-01T16:47:32.853Z,77.60
2018-06-01T16:50:01.155Z,78.77
2018-06-01T16:52:30.205Z,82.36
2018-06-01T16:54:58.426Z,73.45
2018-06-01T16:57:27.521Z,71.37
2018-06-01T16:59:55.780Z,63.56
2018-06-01T17:02:24.048Z,60.38
2018-06-01T17:04:52.319Z,61.48
2018-06-01T17:07:21.378Z,60.65
2018-06-01T17:09:49.614Z,60.31
2018-06-01T17:12:18.667Z,56.09
2018-06-01T17:14:46.918Z,58.05
2018-06-01T17:17:15.941Z,62.43
2018-06-01T17:19:44.193Z,66.31
2018-06-01T17:22:12.548Z,70.20
2018-06-01T17:24:41.580Z,70.47
2018-06-01T17:27:09.868Z,69.18
2018-06-01T17:29:38.131Z,71.52
2018-06-01T17:32:06.399Z,66.98
2018-06-01T17:34:34.618Z,66.52
2018-06-01T17:37:03.711Z,67.29
2018-06-01T17:39:31.946Z,66.85
2018-06-01T17:42:00.987Z,65.10
2018-06-01T17:44:29.235Z,69.23
2018-06-01T17:46:57.503Z,69.84
2018-06-01T17:49:25.777Z,71.32
2018-06-01T17:51:55.392Z,69.10
2018-06-01T17:54:23.649Z,70.42
2018-06-01T17:56:52.015Z,69.36
2018-06-01T17:59:21.036Z,69.39
2018-06-01T18:01:50.055Z,71.65
2018-06-01T18:04:18.292Z,67.68
2018-06-01T18:06:46.589Z,68.89
2018-06-01T18:09:14.817Z,67.71
2018-06-01T18:11:43.811Z,69.99
2018-06-01T18:14:12.108Z,68.79
2018-06-01T18:16:41.107Z,72.11
2018-06-01T18:19:10.136Z,71.04
2018-06-01T18:21:38.381Z,71.20
2018-06-01T18:24:06.678Z,72.83
2018-06-01T18:26:34.865Z,70.36
2018-06-01T18:29:03.129Z,73.59
2018-06-01T18:31:32.175Z,71.84
2018-06-01T18:34:01.154Z,72.37
2018-06-01T18:36:31.090Z,69.38
2018-06-01T18:38:59.361Z,68.85
2018-06-01T18:41:27.594Z,70.33
2018-06-01T18:43:55.923Z,68.62
2018-06-01T18:46:24.901Z,69.34
2018-06-01T18:48:53.159Z,69.67
2018-06-01T18:51:21.438Z,69.80
2018-06-01T18:53:50.464Z,68.85
2018-06-01T18:56:19.481Z,70.48
2018-06-01T18:58:48.692Z,71.76
2018-06-01T19:01:16.943Z,67.60
2018-06-01T19:03:45.168Z,67.96
2018-06-01T19:06:13.457Z,68.80
2018-06-01T19:08:42.512Z,67.24
2018-06-01T19:11:10.775Z,67.48
2018-06-01T19:13:40.874Z,68.64
2018-06-01T19:16:09.234Z,68.93
2018-06-01T19:18:41.612Z,67.90
2018-06-01T19:21:09.912Z,68.04
2018-06-01T19:23:38.198Z,67.53
2018-06-01T19:26:07.458Z,67.78
2018-06-01T19:28:36.632Z,68.14
2018-06-01T19:31:04.952Z,70.12
2018-06-01T19:33:33.267Z,69.95
2018-06-01T19:36:02.267Z,70.91
2018-06-01T19:38:31.298Z,70.97
2018-06-01T19:40:59.546Z,73.03
2018-06-01T19:43:27.822Z,71.91
2018-06-01T19:45:56.819Z,72.47
2018-06-01T19:48:25.912Z,74.09
2018-06-01T19:50:54.142Z,73.85
2018-06-01T19:53:23.164Z,72.77
2018-06-01T19:55:51.407Z,71.91
2018-06-01T19:58:19.703Z,72.23
2018-06-01T20:00:47.963Z,72.34
2018-06-01T20:03:16.222Z,72.08
2018-06-01T20:05:45.246Z,72.14
2018-06-01T20:08:13.480Z,73.64
2018-06-01T20:10:41.740Z,74.63
2018-06-01T20:13:10.013Z,76.21
2018-06-01T20:15:38.275Z,78.32
2018-06-01T20:18:07.295Z,79.34
2018-06-01T20:20:35.556Z,79.36
2018-06-01T20:23:04.613Z,79.47
2018-06-01T20:25:32.887Z,80.60
2018-06-01T20:28:01.122Z,80.10
2018-06-01T20:30:29.423Z,81.01
2018-06-01T20:32:57.664Z,80.83
2018-06-01T20:35:25.991Z,81.14
2018-06-01T20:37:54.235Z,81.89
2018-06-01T20:40:22.508Z,82.19
2018-06-01T20:42:51.519Z,83.17
2018-06-01T20:45:19.787Z,83.07
2018-06-01T20:47:48.766Z,83.10
2018-06-01T20:50:17.815Z,82.86
2018-06-01T20:52:46.073Z,82.26
2018-06-01T20:55:14.318Z,82.63
2018-06-01T20:57:42.571Z,83.34
2018-06-01T21:00:11.605Z,84.56
2018-06-01T21:02:39.856Z,85.46
2018-06-01T21:05:08.916Z,86.07
2018-06-01T21:07:37.148Z,86.30
2018-06-01T21:10:05.428Z,85.49
2018-06-01T21:12:33.630Z,84.29
2018-06-01T21:15:01.901Z,85.71
2018-06-01T21:17:30.171Z,85.32
2018-06-01T21:19:58.393Z,84.13
2018-06-01T21:22:27.439Z,84.96
2018-06-01T21:24:55.706Z,84.19
2018-06-01T21:27:23.978Z,84.23
2018-06-01T21:29:52.219Z,83.86
2018-06-01T21:32:20.479Z,83.55
2018-06-01T21:34:48.711Z,83.96
2018-06-01T21:37:16.968Z,83.94
2018-06-01T21:39:45.210Z,84.50
2018-06-01T21:42:13.466Z,84.38
2018-06-01T21:44:41.721Z,85.36
2018-06-01T21:47:09.995Z,85.27
2018-06-01T21:49:39.757Z,85.65
2018-06-01T21:52:07.983Z,85.22
2018-06-01T21:54:36.221Z,85.55
2018-06-01T21:57:04.480Z,85.15
2018-06-01T21:59:32.734Z,86.17
2018-06-01T22:02:01.762Z,86.20
2018-06-01T22:04:31.607Z,88.23
2018-06-01T22:07:00.627Z,88.89
2018-06-01T22:09:28.879Z,88.22
2018-06-01T22:11:57.143Z,88.45
2018-06-01T22:14:25.416Z,88.52
2018-06-01T22:16:53.656Z,89.51
2018-06-01T22:19:21.899Z,90.50
2018-06-01T22:21:50.125Z,89.63
2018-06-01T22:24:18.413Z,90.26
2018-06-01T22:26:46.671Z,91.48
2018-06-01T22:29:14.906Z,92.01
2018-06-01T22:31:43.927Z,92.12
2018-06-01T22:34:12.931Z,92.60
2018-06-01T22:36:41.970Z,92.19
2018-06-01T22:39:10.276Z,91.69
2018-06-01T22:41:38.480Z,91.64
2018-06-01T22:44:07.521Z,91.79
2018-06-01T22:46:36.525Z,91.81
2018-06-01T22:49:05.542Z,91.49
2018-06-01T22:51:33.778Z,92.17
2018-06-01T22:54:02.039Z,92.69
2018-06-01T22:56:30.308Z,93.24
2018-06-01T22:58:59.323Z,93.13
2018-06-01T23:01:27.564Z,93.99
2018-06-01T23:03:55.869Z,94.34
2018-06-01T23:06:24.062Z,95.08
2018-06-01T23:08:52.347Z,94.70
2018-06-01T23:11:21.346Z,95.14
2018-06-01T23:13:49.595Z,95.27
2018-06-01T23:16:17.839Z,94.98
2018-06-01T23:18:46.826Z,95.24
2018-06-01T23:21:15.097Z,94.81
2018-06-01T23:23:43.347Z,95.04
2018-06-01T23:26:11.637Z,95.05
2018-06-01T23:28:39.896Z,94.61
2018-06-01T23:31:09.510Z,94.37
2018-06-01T23:33:37.763Z,94.26
2018-06-01T23:36:06.000Z,93.80
2018-06-01T23:38:35.029Z,94.05
2018-06-01T23:41:03.276Z,94.39
2018-06-01T23:43:31.568Z,94.82
2018-06-01T23:45:59.824Z,94.59
2018-06-01T23:48:28.078Z,94.43
2018-06-01T23:50:56.318Z,93.65
2018-06-01T23:53:24.584Z,93.49
2018-06-01T23:55:52.824Z,93.73
2018-06-01T23:58:22.539Z,92.86
